createdAt,value
2023-12-08T00:00:49.726Z,7.13
2023-12-08T00:03:16.747Z,7.90
2023-12-08T00:05:43.358Z,7.63
2023-12-08T00:08:10.294Z,6.53
2023-12-08T00:10:37.026Z,7.28
2023-12-08T00:13:03.677Z,6.22
2023-12-08T00:15:30.351Z,5.80
2023-12-08T00:17:57.126Z,6.22
2023-12-08T00:20:24.935Z,7.15
2023-12-08T00:22:51.635Z,6.40
2023-12-08T00:25:18.350Z,6.13
2023-12-08T00:27:44.864Z,6.05
2023-12-08T00:30:13.093Z,5.78
2023-12-08T00:32:39.850Z,6.80
2023-12-08T00:35:07.211Z,5.80
2023-12-08T00:37:34.265Z,6.00
2023-12-08T00:40:01.178Z,5.55
2023-12-08T00:42:28.967Z,6.28
2023-12-08T00:44:55.586Z,6.30
2023-12-08T00:47:22.267Z,6.03
2023-12-08T00:49:48.791Z,6.60
2023-12-08T00:52:15.613Z,6.63
2023-12-08T00:54:42.235Z,7.20
2023-12-08T00:57:09.529Z,6.80
2023-12-08T00:59:36.295Z,6.75
2023-12-08T01:02:03.010Z,5.93
2023-12-08T01:04:29.688Z,6.95
2023-12-08T01:06:56.274Z,7.72
2023-12-08T01:09:23.016Z,7.05
2023-12-08T01:11:49.925Z,6.93
2023-12-08T01:14:16.668Z,6.50
2023-12-08T01:16:43.698Z,5.88
2023-12-08T01:19:12.190Z,5.85
2023-12-08T01:21:39.991Z,6.25
2023-12-08T01:24:07.770Z,6.00
2023-12-08T01:26:34.909Z,6.47
2023-12-08T01:29:01.640Z,5.80
2023-12-08T01:31:28.204Z,6.55
2023-12-08T01:33:54.983Z,6.47
2023-12-08T01:36:39.684Z,6.50
2023-12-08T01:39:08.311Z,6.75
2023-12-08T01:41:35.059Z,6.40
2023-12-08T01:44:01.583Z,6.70
2023-12-08T01:46:29.529Z,6.78
2023-12-08T01:48:56.566Z,7.05
2023-12-08T01:51:23.510Z,6.25
2023-12-08T01:53:51.468Z,6.43
2023-12-08T01:56:18.190Z,6.95
2023-12-08T01:58:45.472Z,7.40
2023-12-08T02:01:12.136Z,6.35
2023-12-08T02:03:40.426Z,6.38
2023-12-08T02:06:08.081Z,6.25
2023-12-08T02:08:35.131Z,6.03
2023-12-08T02:11:01.895Z,6.18
2023-12-08T02:13:28.628Z,5.82
2023-12-08T02:16:00.301Z,6.03
2023-12-08T02:18:27.255Z,5.85
2023-12-08T02:20:54.210Z,6.03
2023-12-08T02:23:21.301Z,5.95
2023-12-08T02:25:47.891Z,6.18
2023-12-08T02:28:14.652Z,5.85
2023-12-08T02:30:41.337Z,5.80
2023-12-08T02:33:20.053Z,5.97
2023-12-08T02:35:47.054Z,5.90
2023-12-08T02:38:18.367Z,5.40
2023-12-08T02:40:45.101Z,6.05
2023-12-08T02:43:11.990Z,6.10
2023-12-08T02:45:38.763Z,6.15
2023-12-08T02:48:05.709Z,6.45
2023-12-08T02:50:32.474Z,7.30
2023-12-08T02:52:59.137Z,8.35
2023-12-08T02:55:25.672Z,8.73
2023-12-08T02:57:52.398Z,8.98
2023-12-08T03:00:19.337Z,8.25
2023-12-08T03:02:45.996Z,8.85
2023-12-08T03:05:12.759Z,8.95
2023-12-08T03:07:39.511Z,8.55
2023-12-08T03:10:06.596Z,8.50
2023-12-08T03:12:33.563Z,8.90
2023-12-08T03:15:00.526Z,8.98
2023-12-08T03:17:28.285Z,8.40
2023-12-08T03:19:55.067Z,9.38
2023-12-08T03:22:21.812Z,8.23
2023-12-08T03:24:48.627Z,8.73
2023-12-08T03:27:15.405Z,9.20
2023-12-08T03:29:42.463Z,8.93
2023-12-08T03:32:09.055Z,8.77
2023-12-08T03:34:35.896Z,8.10
2023-12-08T03:37:02.771Z,8.93
2023-12-08T03:39:29.248Z,8.23
2023-12-08T03:41:55.983Z,11.45
2023-12-08T03:44:22.759Z,8.85
2023-12-08T03:46:49.386Z,8.65
2023-12-08T03:49:16.115Z,7.05
2023-12-08T03:51:43.033Z,7.28
2023-12-08T03:54:09.554Z,6.65
2023-12-08T03:56:36.211Z,6.70
2023-12-08T03:59:02.861Z,6.60
2023-12-08T04:01:29.371Z,7.20
2023-12-08T04:03:56.074Z,7.13
2023-12-08T04:06:22.979Z,6.60
2023-12-08T04:08:49.670Z,7.00
2023-12-08T04:11:16.226Z,7.45
2023-12-08T04:13:42.828Z,7.18
2023-12-08T04:16:09.605Z,7.60
2023-12-08T04:18:37.160Z,6.57
2023-12-08T04:21:03.902Z,7.40
2023-12-08T04:23:30.460Z,7.55
2023-12-08T04:25:58.863Z,7.10
2023-12-08T04:28:26.338Z,7.07
2023-12-08T04:30:53.028Z,7.03
2023-12-08T04:33:19.795Z,7.10
2023-12-08T04:35:46.703Z,6.47
2023-12-08T04:38:13.310Z,7.43
2023-12-08T04:40:39.938Z,7.07
2023-12-08T04:43:06.603Z,7.40
2023-12-08T04:45:33.089Z,7.93
2023-12-08T04:47:59.949Z,9.73
2023-12-08T04:50:27.277Z,8.85
2023-12-08T04:52:54.066Z,8.38
2023-12-08T04:55:20.704Z,8.13
2023-12-08T04:57:47.587Z,8.05
2023-12-08T05:00:14.360Z,7.53
2023-12-08T05:02:41.002Z,10.85
2023-12-08T05:05:07.901Z,10.45
2023-12-08T05:07:34.516Z,11.05
2023-12-08T05:10:01.549Z,14.10
2023-12-08T05:12:28.377Z,14.65
2023-12-08T05:14:55.285Z,13.38
2023-12-08T05:17:22.111Z,13.55
2023-12-08T05:19:48.887Z,14.27
2023-12-08T05:22:15.670Z,13.20
2023-12-08T05:24:42.140Z,14.68
2023-12-08T05:27:09.426Z,15.73
2023-12-08T05:29:36.358Z,15.25
2023-12-08T05:32:03.296Z,14.27
2023-12-08T05:34:30.176Z,15.10
2023-12-08T05:36:56.962Z,15.18
2023-12-08T05:39:23.655Z,13.90
2023-12-08T05:41:50.134Z,14.65
2023-12-08T05:44:16.880Z,14.40
2023-12-08T05:46:43.999Z,14.55
2023-12-08T05:49:10.931Z,12.85
2023-12-08T05:51:37.625Z,14.25
2023-12-08T05:54:04.562Z,14.02
2023-12-08T05:56:31.540Z,13.45
2023-12-08T05:58:58.302Z,14.27
2023-12-08T06:01:24.758Z,13.88
2023-12-08T06:03:51.373Z,14.40
2023-12-08T06:06:18.263Z,13.02
2023-12-08T06:08:44.883Z,13.15
2023-12-08T06:11:11.816Z,13.00
2023-12-08T06:13:38.401Z,13.82
2023-12-08T06:16:05.780Z,12.20
2023-12-08T06:18:32.542Z,10.35
2023-12-08T06:20:59.462Z,10.68
2023-12-08T06:23:26.708Z,11.20
2023-12-08T06:25:53.506Z,9.80
2023-12-08T06:28:20.080Z,10.40
2023-12-08T06:30:47.006Z,11.07
2023-12-08T06:33:13.698Z,10.57
2023-12-08T06:35:40.518Z,10.73
2023-12-08T06:38:07.060Z,9.98
2023-12-08T06:40:33.558Z,10.85
2023-12-08T06:43:00.122Z,11.10
2023-12-08T06:45:26.595Z,10.70
2023-12-08T06:47:53.449Z,10.27
2023-12-08T06:50:20.441Z,10.25
2023-12-08T06:52:47.936Z,11.52
2023-12-08T06:55:14.584Z,10.77
2023-12-08T06:57:41.108Z,10.90
2023-12-08T07:00:11.369Z,9.75
2023-12-08T07:02:38.378Z,10.60
2023-12-08T07:05:05.547Z,10.32
2023-12-08T07:07:32.247Z,10.60
2023-12-08T07:09:58.688Z,10.57
2023-12-08T07:12:25.251Z,11.15
2023-12-08T07:14:52.038Z,11.73
2023-12-08T07:17:18.672Z,11.50
2023-12-08T07:19:45.425Z,10.85
2023-12-08T07:22:12.097Z,10.52
2023-12-08T07:24:39.939Z,10.27
2023-12-08T07:27:07.303Z,10.15
2023-12-08T07:29:33.915Z,9.38
2023-12-08T07:32:00.788Z,9.73
2023-12-08T07:34:27.378Z,9.80
2023-12-08T07:36:53.952Z,10.18
2023-12-08T07:39:20.839Z,10.15
2023-12-08T07:41:47.393Z,9.98
2023-12-08T07:44:14.694Z,10.63
2023-12-08T07:46:41.544Z,9.98
2023-12-08T07:49:08.196Z,9.93
2023-12-08T07:51:34.838Z,9.30
2023-12-08T07:54:03.161Z,9.73
2023-12-08T07:56:30.230Z,9.63
2023-12-08T07:58:56.729Z,8.52
2023-12-08T08:01:23.267Z,9.82
2023-12-08T08:03:49.794Z,10.00
2023-12-08T08:06:16.627Z,9.38
2023-12-08T08:08:43.280Z,10.25
2023-12-08T08:11:10.423Z,10.18
2023-12-08T08:13:36.902Z,9.82
2023-12-08T08:16:03.563Z,9.65
2023-12-08T08:18:30.524Z,10.50
2023-12-08T08:20:57.398Z,9.88
2023-12-08T08:23:24.189Z,10.50
2023-12-08T08:25:50.826Z,11.10
2023-12-08T08:28:17.442Z,11.00
2023-12-08T08:30:44.510Z,10.07
2023-12-08T08:33:11.406Z,10.10
2023-12-08T08:35:38.849Z,9.48
2023-12-08T08:38:05.529Z,10.45
2023-12-08T08:40:33.388Z,10.20
2023-12-08T08:42:59.892Z,9.75
2023-12-08T08:45:27.109Z,8.98
2023-12-08T08:47:54.292Z,8.65
2023-12-08T08:50:22.305Z,8.48
2023-12-08T08:52:49.211Z,8.77
2023-12-08T08:55:15.918Z,8.82
2023-12-08T08:57:42.502Z,8.32
2023-12-08T09:00:14.000Z,8.52
2023-12-08T09:02:42.416Z,8.20
2023-12-08T09:05:09.243Z,9.38
2023-12-08T09:07:37.325Z,8.43
2023-12-08T09:10:04.690Z,8.63
2023-12-08T09:12:31.429Z,9.00
2023-12-08T09:14:58.399Z,8.13
2023-12-08T09:17:24.996Z,8.82
2023-12-08T09:19:52.249Z,8.80
2023-12-08T09:22:19.048Z,9.23
2023-12-08T09:24:45.658Z,9.43
2023-12-08T09:27:12.367Z,8.73
2023-12-08T09:29:39.139Z,10.18
2023-12-08T09:32:06.446Z,8.77
2023-12-08T09:34:34.182Z,8.75
2023-12-08T09:37:25.952Z,9.23
2023-12-08T09:39:47.602Z,10.98
2023-12-08T09:42:33.280Z,9.00
2023-12-08T09:45:01.987Z,9.05
2023-12-08T09:47:30.784Z,9.55
2023-12-08T09:50:00.705Z,8.68
2023-12-08T09:52:27.704Z,8.98
2023-12-08T09:54:54.913Z,9.57
2023-12-08T09:57:22.322Z,10.25
2023-12-08T09:59:51.638Z,10.85
2023-12-08T10:02:19.754Z,10.82
2023-12-08T10:04:47.147Z,10.38
2023-12-08T10:07:14.412Z,10.38
2023-12-08T10:09:42.397Z,10.57
2023-12-08T10:12:09.097Z,10.27
2023-12-08T10:14:35.685Z,9.90
2023-12-08T10:17:03.582Z,10.85
2023-12-08T10:19:30.179Z,10.25
2023-12-08T10:22:03.416Z,10.52
2023-12-08T10:24:31.683Z,9.98
2023-12-08T10:27:00.328Z,11.75
2023-12-08T10:29:34.457Z,11.30
2023-12-08T10:32:02.058Z,11.35
2023-12-08T10:34:29.349Z,11.27
2023-12-08T10:36:56.367Z,11.80
2023-12-08T10:39:24.098Z,14.63
2023-12-08T10:41:52.254Z,13.32
2023-12-08T10:44:21.570Z,14.02
2023-12-08T10:46:49.538Z,13.30
2023-12-08T10:49:20.551Z,13.48
2023-12-08T10:51:48.574Z,12.48
2023-12-08T10:54:17.535Z,12.43
2023-12-08T10:56:46.211Z,12.82
2023-12-08T10:59:19.174Z,12.60
2023-12-08T11:01:47.567Z,13.65
2023-12-08T11:04:22.586Z,13.43
2023-12-08T11:07:04.161Z,12.77
2023-12-08T11:09:36.468Z,11.45
2023-12-08T11:12:07.834Z,12.70
2023-12-08T11:14:49.547Z,11.90
2023-12-08T11:17:43.157Z,11.77
2023-12-08T11:20:11.093Z,12.50
2023-12-08T11:22:38.116Z,13.60
2023-12-08T11:25:11.001Z,11.55
2023-12-08T11:27:49.053Z,12.40
2023-12-08T11:30:44.696Z,11.82
2023-12-08T11:33:27.904Z,10.98
2023-12-08T11:36:06.186Z,10.73
2023-12-08T11:38:32.868Z,10.70
2023-12-08T11:40:59.547Z,10.70
2023-12-08T11:43:27.446Z,11.48
2023-12-08T11:45:54.008Z,11.98
2023-12-08T11:48:23.587Z,10.52
2023-12-08T11:50:50.801Z,10.57
2023-12-08T11:53:18.288Z,13.63
2023-12-08T11:55:45.309Z,12.07
2023-12-08T11:58:12.912Z,12.48
2023-12-08T12:00:40.470Z,12.30
2023-12-08T12:03:09.245Z,11.18
2023-12-08T12:05:39.955Z,11.25
2023-12-08T12:08:08.748Z,12.05
2023-12-08T12:10:35.791Z,11.82
2023-12-08T12:13:06.591Z,11.85
2023-12-08T12:15:36.527Z,13.48
2023-12-08T12:18:04.083Z,12.88
2023-12-08T12:20:40.088Z,12.88
2023-12-08T12:23:07.146Z,12.43
2023-12-08T12:25:34.145Z,11.43
2023-12-08T12:28:00.760Z,12.60
2023-12-08T12:30:27.346Z,13.15
2023-12-08T12:32:54.344Z,12.30
2023-12-08T12:35:21.176Z,12.70
2023-12-08T12:37:47.793Z,14.65
2023-12-08T12:40:14.325Z,13.75
2023-12-08T12:42:43.157Z,14.57
2023-12-08T12:45:11.283Z,13.80
2023-12-08T12:47:38.393Z,12.95
2023-12-08T12:50:08.612Z,13.10
2023-12-08T12:52:41.377Z,13.90
2023-12-08T12:55:28.437Z,14.48
2023-12-08T12:57:55.018Z,14.63
2023-12-08T13:00:40.209Z,12.23
2023-12-08T13:03:11.658Z,13.13
2023-12-08T13:05:45.529Z,14.30
2023-12-08T13:08:14.264Z,14.10
2023-12-08T13:10:42.747Z,14.60
2023-12-08T13:13:09.174Z,14.82
2023-12-08T13:15:37.052Z,14.25
2023-12-08T13:18:04.838Z,15.68
2023-12-08T13:20:34.494Z,14.43
2023-12-08T13:23:02.556Z,13.98
2023-12-08T13:25:29.018Z,15.23
2023-12-08T13:27:55.513Z,11.45
2023-12-08T13:30:22.411Z,12.10
2023-12-08T13:32:49.113Z,12.65
2023-12-08T13:35:15.707Z,11.48
2023-12-08T13:37:43.170Z,13.05
2023-12-08T13:40:13.083Z,11.50
2023-12-08T13:42:40.412Z,13.02
2023-12-08T13:45:08.374Z,11.88
2023-12-08T13:47:34.978Z,13.25
2023-12-08T13:50:01.485Z,11.90
2023-12-08T13:52:28.326Z,11.90
2023-12-08T13:54:54.880Z,12.10
2023-12-08T13:57:21.359Z,12.45
2023-12-08T13:59:47.881Z,11.48
2023-12-08T14:02:14.330Z,11.68
2023-12-08T14:04:40.979Z,12.70
2023-12-08T14:07:07.558Z,13.27
2023-12-08T14:09:34.063Z,12.10
2023-12-08T14:12:01.566Z,11.98
2023-12-08T14:14:28.112Z,10.27
2023-12-08T14:16:54.629Z,12.27
2023-12-08T14:19:21.341Z,11.52
2023-12-08T14:21:48.466Z,12.70
2023-12-08T14:24:15.201Z,11.57
2023-12-08T14:26:42.369Z,11.35
2023-12-08T14:29:08.959Z,11.07
2023-12-08T14:31:35.377Z,11.00
2023-12-08T14:34:02.017Z,11.55
2023-12-08T14:36:28.836Z,11.55
2023-12-08T14:38:55.397Z,11.27
2023-12-08T14:41:21.959Z,10.57
2023-12-08T14:43:48.603Z,11.82
2023-12-08T14:46:19.805Z,11.60
2023-12-08T14:48:46.547Z,11.43
2023-12-08T14:51:23.888Z,10.48
2023-12-08T14:53:50.924Z,13.02
2023-12-08T14:56:18.954Z,10.90
2023-12-08T14:58:45.591Z,11.55
2023-12-08T15:01:16.916Z,12.15
2023-12-08T15:03:45.779Z,11.75
2023-12-08T15:06:13.723Z,12.13
2023-12-08T15:08:41.422Z,12.60
2023-12-08T15:11:08.385Z,11.98
2023-12-08T15:13:35.153Z,12.02
2023-12-08T15:16:01.877Z,12.00
2023-12-08T15:18:28.561Z,11.25
2023-12-08T15:20:55.796Z,13.30
2023-12-08T15:23:24.521Z,12.98
2023-12-08T15:25:51.160Z,13.27
2023-12-08T15:28:17.614Z,12.55
2023-12-08T15:30:44.081Z,12.20
2023-12-08T15:33:10.951Z,13.40
2023-12-08T15:35:37.570Z,12.75
2023-12-08T15:38:06.459Z,13.48
2023-12-08T15:40:35.240Z,14.05
2023-12-08T15:43:01.707Z,14.77
2023-12-08T15:45:28.186Z,17.13
2023-12-08T15:47:54.936Z,14.38
2023-12-08T15:50:21.695Z,14.88
2023-12-08T15:52:48.261Z,15.95
2023-12-08T15:55:14.840Z,14.20
2023-12-08T15:57:41.509Z,15.27
2023-12-08T16:00:08.643Z,17.48
2023-12-08T16:02:40.698Z,19.67
2023-12-08T16:05:07.618Z,14.25
2023-12-08T16:07:34.604Z,16.88
2023-12-08T16:10:01.094Z,15.75
2023-12-08T16:12:28.202Z,14.82
2023-12-08T16:14:55.026Z,14.95
2023-12-08T16:17:21.744Z,15.73
2023-12-08T16:19:48.540Z,15.18
2023-12-08T16:22:16.138Z,15.95
2023-12-08T16:24:47.679Z,15.00
2023-12-08T16:27:14.580Z,14.95
2023-12-08T16:29:45.451Z,15.70
2023-12-08T16:32:13.022Z,15.57
2023-12-08T16:34:39.658Z,17.95
2023-12-08T16:37:06.321Z,16.80
2023-12-08T16:39:33.550Z,17.13
2023-12-08T16:42:00.101Z,16.58
2023-12-08T16:44:26.601Z,16.52
2023-12-08T16:46:53.525Z,15.77
2023-12-08T16:49:20.180Z,16.10
2023-12-08T16:51:46.714Z,16.55
2023-12-08T16:54:13.249Z,17.58
2023-12-08T16:56:39.763Z,17.15
2023-12-08T16:59:06.214Z,15.80
2023-12-08T17:01:34.295Z,18.05
2023-12-08T17:04:01.251Z,16.50
2023-12-08T17:06:28.243Z,17.50
2023-12-08T17:08:55.056Z,17.38
2023-12-08T17:11:21.687Z,17.80
2023-12-08T17:13:48.220Z,18.00
2023-12-08T17:16:14.894Z,16.90
2023-12-08T17:18:42.064Z,17.20
2023-12-08T17:21:08.851Z,17.00
2023-12-08T17:23:35.422Z,16.95
2023-12-08T17:26:01.863Z,16.42
2023-12-08T17:28:28.328Z,17.70
2023-12-08T17:30:54.911Z,17.30
2023-12-08T17:33:21.631Z,17.02
2023-12-08T17:35:48.353Z,17.88
2023-12-08T17:38:17.037Z,16.85
2023-12-08T17:40:44.307Z,18.85
2023-12-08T17:43:11.877Z,18.27
2023-12-08T17:45:39.031Z,18.17
2023-12-08T17:48:08.821Z,16.92
2023-12-08T17:50:35.636Z,18.20
2023-12-08T17:53:02.096Z,17.95
2023-12-08T17:55:28.943Z,18.23
2023-12-08T17:57:55.476Z,18.88
2023-12-08T18:00:22.098Z,19.52
2023-12-08T18:02:56.046Z,18.98
2023-12-08T18:05:22.938Z,19.15
2023-12-08T18:07:49.472Z,19.50
2023-12-08T18:10:16.125Z,18.95
2023-12-08T18:12:42.673Z,18.77
2023-12-08T18:15:09.929Z,19.63
2023-12-08T18:17:37.159Z,19.00
2023-12-08T18:20:04.603Z,18.05
2023-12-08T18:22:32.863Z,20.60
2023-12-08T18:24:59.450Z,19.90
2023-12-08T18:27:38.059Z,21.33
2023-12-08T18:30:14.027Z,21.20
2023-12-08T18:32:41.780Z,19.50
2023-12-08T18:35:08.775Z,20.70
2023-12-08T18:37:35.272Z,20.75
2023-12-08T18:40:02.074Z,21.60
2023-12-08T18:42:28.953Z,21.23
2023-12-08T18:44:55.731Z,21.33
2023-12-08T18:47:23.316Z,21.30
2023-12-08T18:49:50.066Z,22.23
2023-12-08T18:52:16.878Z,21.58
2023-12-08T18:54:43.527Z,22.48
2023-12-08T18:57:10.134Z,24.35
2023-12-08T18:59:39.185Z,30.92
2023-12-08T19:02:06.548Z,28.95
2023-12-08T19:04:34.692Z,29.17
2023-12-08T19:07:04.862Z,29.40
2023-12-08T19:09:31.516Z,24.20
2023-12-08T19:11:59.438Z,23.33
2023-12-08T19:14:27.588Z,23.23
2023-12-08T19:16:54.234Z,22.75
2023-12-08T19:19:22.242Z,21.88
2023-12-08T19:21:48.914Z,22.73
2023-12-08T19:24:15.514Z,24.58
2023-12-08T19:26:42.072Z,22.88
2023-12-08T19:29:08.715Z,22.40
2023-12-08T19:31:35.747Z,23.23
2023-12-08T19:34:02.440Z,20.98
2023-12-08T19:36:29.083Z,22.48
2023-12-08T19:39:00.463Z,22.25
2023-12-08T19:41:28.003Z,22.20
2023-12-08T19:43:55.843Z,22.15
2023-12-08T19:46:22.650Z,21.42
2023-12-08T19:48:49.373Z,20.38
2023-12-08T19:51:16.142Z,21.70
2023-12-08T19:53:42.897Z,21.13
2023-12-08T19:56:10.042Z,22.70
2023-12-08T19:58:36.676Z,21.73
2023-12-08T20:01:03.570Z,23.83
2023-12-08T20:03:30.265Z,24.38
2023-12-08T20:05:57.090Z,26.23
2023-12-08T20:08:23.664Z,25.55
2023-12-08T20:10:50.178Z,25.05
2023-12-08T20:13:16.719Z,25.67
2023-12-08T20:15:45.687Z,25.35
2023-12-08T20:18:12.761Z,24.35
2023-12-08T20:20:39.963Z,23.30
2023-12-08T20:23:06.882Z,22.38
2023-12-08T20:25:33.456Z,22.27
2023-12-08T20:27:59.968Z,23.38
2023-12-08T20:30:26.961Z,22.83
2023-12-08T20:32:56.879Z,22.67
2023-12-08T20:35:23.654Z,20.52
2023-12-08T20:37:52.812Z,20.73
2023-12-08T20:40:19.509Z,20.80
2023-12-08T20:42:45.972Z,21.38
2023-12-08T20:45:12.790Z,20.90
2023-12-08T20:47:39.550Z,21.88
2023-12-08T20:50:06.686Z,21.67
2023-12-08T20:52:33.208Z,20.50
2023-12-08T20:54:59.868Z,22.67
2023-12-08T20:57:26.986Z,22.60
2023-12-08T20:59:53.796Z,22.60
2023-12-08T21:02:22.101Z,22.75
2023-12-08T21:04:49.246Z,20.95
2023-12-08T21:07:16.202Z,21.80
2023-12-08T21:09:42.946Z,20.90
2023-12-08T21:12:09.492Z,20.67
2023-12-08T21:14:36.125Z,20.77
2023-12-08T21:17:03.330Z,22.33
2023-12-08T21:19:31.660Z,20.92
2023-12-08T21:22:02.175Z,21.27
2023-12-08T21:24:29.032Z,20.65
2023-12-08T21:26:55.599Z,20.17
2023-12-08T21:29:22.249Z,21.88
2023-12-08T21:31:51.640Z,21.58
2023-12-08T21:34:18.428Z,21.17
2023-12-08T21:36:45.000Z,19.42
2023-12-08T21:39:11.584Z,20.38
2023-12-08T21:41:38.346Z,23.27
2023-12-08T21:44:07.804Z,21.20
2023-12-08T21:46:34.829Z,20.10
2023-12-08T21:49:01.762Z,21.08
2023-12-08T21:51:30.842Z,20.35
2023-12-08T21:53:58.755Z,19.52
2023-12-08T21:56:29.884Z,19.20
2023-12-08T21:58:59.966Z,19.95
2023-12-08T22:01:27.249Z,18.45
2023-12-08T22:03:57.303Z,19.02
2023-12-08T22:06:24.335Z,18.98
2023-12-08T22:08:51.873Z,18.67
2023-12-08T22:11:18.967Z,17.52
2023-12-08T22:13:46.724Z,18.38
2023-12-08T22:16:13.250Z,19.48
2023-12-08T22:18:41.720Z,19.25
2023-12-08T22:21:09.859Z,19.45
2023-12-08T22:23:38.339Z,19.02
2023-12-08T22:26:05.123Z,18.42
2023-12-08T22:28:31.794Z,18.85
2023-12-08T22:30:58.621Z,18.58
2023-12-08T22:33:25.504Z,19.02
2023-12-08T22:35:53.276Z,19.50
2023-12-08T22:38:20.246Z,17.20
2023-12-08T22:40:46.989Z,18.58
2023-12-08T22:43:13.475Z,17.35
2023-12-08T22:45:40.560Z,16.70
2023-12-08T22:48:07.285Z,16.15
2023-12-08T22:50:43.094Z,17.70
2023-12-08T22:53:13.466Z,16.87
2023-12-08T22:55:40.478Z,17.17
2023-12-08T22:58:07.047Z,17.10
2023-12-08T23:00:33.695Z,17.23
2023-12-08T23:03:00.431Z,16.30
2023-12-08T23:05:26.994Z,15.57
2023-12-08T23:07:53.744Z,16.48
2023-12-08T23:10:20.523Z,13.77
2023-12-08T23:12:47.717Z,14.90
2023-12-08T23:15:14.469Z,15.05
2023-12-08T23:17:41.337Z,16.15
2023-12-08T23:20:12.398Z,14.93
2023-12-08T23:22:39.060Z,14.50
2023-12-08T23:25:06.660Z,14.90
2023-12-08T23:27:33.389Z,14.40
2023-12-08T23:30:00.150Z,14.35
2023-12-08T23:32:28.475Z,14.02
2023-12-08T23:34:55.314Z,14.38
2023-12-08T23:37:22.629Z,13.50
2023-12-08T23:39:49.265Z,13.98
2023-12-08T23:42:15.833Z,13.13
2023-12-08T23:44:42.373Z,11.85
2023-12-08T23:47:09.356Z,12.23
2023-12-08T23:49:35.839Z,12.40
2023-12-08T23:52:02.337Z,12.00
2023-12-08T23:54:28.976Z,12.05
2023-12-08T23:56:55.654Z,12.70
2023-12-08T23:59:22.175Z,12.68
